createdAt,value
2023-09-08T00:00:03.178Z,100396.19
2023-09-08T00:05:05.100Z,100397.28
2023-09-08T00:10:08.152Z,100402.31
2023-09-08T00:15:10.545Z,100399.97
2023-09-08T00:20:12.564Z,100396.00
2023-09-08T00:25:14.128Z,100392.81
2023-09-08T00:30:15.860Z,100383.75
2023-09-08T00:35:17.805Z,100380.44
2023-09-08T00:40:19.646Z,100386.31
2023-09-08T00:45:21.718Z,100381.00
2023-09-08T00:50:23.777Z,100382.53
2023-09-08T00:55:26.066Z,100380.28
2023-09-08T01:00:28.047Z,100384.41
2023-09-08T01:05:29.703Z,100376.75
2023-09-08T01:10:31.406Z,100372.13
2023-09-08T01:15:33.316Z,100371.78
2023-09-08T01:20:45.895Z,100368.50
2023-09-08T01:25:58.298Z,100368.56
2023-09-08T01:31:02.106Z,100359.75
2023-09-08T01:36:04.133Z,100365.63
2023-09-08T01:41:05.728Z,100363.38
2023-09-08T01:46:07.387Z,100367.56
2023-09-08T01:51:09.100Z,100353.69
2023-09-08T01:56:10.734Z,100356.84
2023-09-08T02:01:12.389Z,100359.66
2023-09-08T02:06:14.067Z,100361.63
2023-09-08T02:11:15.649Z,100374.06
2023-09-08T02:16:17.589Z,100368.53
2023-09-08T02:21:19.204Z,100367.53
2023-09-08T02:26:20.931Z,100367.41
2023-09-08T02:31:23.347Z,100366.81
2023-09-08T02:36:27.870Z,100363.53
2023-09-08T02:41:29.655Z,100373.19
2023-09-08T02:46:31.384Z,100372.63
2023-09-08T02:51:33.089Z,100358.38
2023-09-08T02:56:34.732Z,100361.19
2023-09-08T03:01:36.709Z,100356.44
2023-09-08T03:06:38.282Z,100357.13
2023-09-08T03:11:40.401Z,100356.75
2023-09-08T03:16:42.060Z,100350.94
2023-09-08T03:21:43.805Z,100350.34
2023-09-08T03:26:45.629Z,100363.34
2023-09-08T03:31:47.327Z,100363.16
2023-09-08T03:36:50.753Z,100366.28
2023-09-08T03:41:52.406Z,100358.66
2023-09-08T03:46:54.000Z,100364.28
2023-09-08T03:51:55.572Z,100365.69
2023-09-08T03:56:57.319Z,100369.09
2023-09-08T04:01:58.929Z,100367.44
2023-09-08T04:07:00.614Z,100361.06
2023-09-08T04:12:03.051Z,100368.31
2023-09-08T04:17:04.599Z,100367.78
2023-09-08T04:22:08.709Z,100364.50
2023-09-08T04:27:13.110Z,100378.19
2023-09-08T04:32:17.068Z,100390.56
2023-09-08T04:37:18.736Z,100381.09
2023-09-08T04:42:20.385Z,100388.63
2023-09-08T04:47:22.214Z,100389.59
2023-09-08T04:52:23.935Z,100392.16
2023-09-08T04:57:25.651Z,100399.00
2023-09-08T05:02:27.441Z,100393.38
2023-09-08T05:07:29.262Z,100400.66
2023-09-08T05:12:31.143Z,100402.44
2023-09-08T05:17:33.119Z,100404.34
2023-09-08T05:22:36.873Z,100401.38
2023-09-08T05:27:38.529Z,100400.34
2023-09-08T05:32:40.194Z,100400.28
2023-09-08T05:37:41.898Z,100411.97
2023-09-08T05:42:45.846Z,100419.56
2023-09-08T05:47:50.376Z,100414.47
2023-09-08T05:52:52.730Z,100426.41
2023-09-08T05:57:54.226Z,100411.88
2023-09-08T06:02:55.874Z,100413.88
2023-09-08T06:08:06.590Z,100419.56
2023-09-08T06:13:09.066Z,100418.53
2023-09-08T06:18:10.723Z,100407.47
2023-09-08T06:23:14.088Z,100409.66
2023-09-08T06:28:15.863Z,100396.50
2023-09-08T06:33:17.731Z,100406.03
2023-09-08T06:38:19.498Z,100405.72
2023-09-08T06:43:21.127Z,100401.91
2023-09-08T06:48:22.772Z,100397.31
2023-09-08T06:53:24.701Z,100401.38
2023-09-08T06:58:26.457Z,100399.53
2023-09-08T07:03:28.523Z,100392.97
2023-09-08T07:08:30.392Z,100394.09
2023-09-08T07:13:33.176Z,100404.59
2023-09-08T07:18:37.351Z,100392.16
2023-09-08T07:23:39.760Z,100396.00
2023-09-08T07:28:42.611Z,100391.63
2023-09-08T07:33:44.265Z,100395.44
2023-09-08T07:38:45.999Z,100383.75
2023-09-08T07:43:47.691Z,100379.56
2023-09-08T07:48:49.399Z,100376.25
2023-09-08T07:53:51.090Z,100381.22
2023-09-08T07:58:53.022Z,100382.69
2023-09-08T08:03:54.966Z,100380.97
2023-09-08T08:08:57.487Z,100380.03
2023-09-08T08:13:59.531Z,100376.19
2023-09-08T08:19:01.379Z,100373.34
2023-09-08T08:24:03.185Z,100366.44
2023-09-08T08:29:04.777Z,100361.50
2023-09-08T08:34:06.356Z,100355.16
2023-09-08T08:39:10.016Z,100363.78
2023-09-08T08:44:11.786Z,100354.09
2023-09-08T08:49:16.338Z,100357.91
2023-09-08T08:54:18.015Z,100347.31
2023-09-08T08:59:19.914Z,100345.75
2023-09-08T09:04:23.207Z,100344.81
2023-09-08T09:09:26.369Z,100350.38
2023-09-08T09:14:28.027Z,100338.69
2023-09-08T09:19:31.656Z,100323.66
2023-09-08T09:24:42.352Z,100329.66
2023-09-08T09:29:51.427Z,100321.28
2023-09-08T09:34:55.060Z,100322.97
2023-09-08T09:39:56.718Z,100319.56
2023-09-08T09:44:58.534Z,100323.03
2023-09-08T09:50:01.203Z,100321.81
2023-09-08T09:55:03.288Z,100322.16
2023-09-08T10:00:07.138Z,100310.44
2023-09-08T10:05:13.604Z,100314.13
2023-09-08T10:10:16.819Z,100304.78
2023-09-08T10:15:22.963Z,100295.22
2023-09-08T10:20:25.642Z,100300.16
2023-09-08T10:25:29.166Z,100294.16
2023-09-08T10:30:33.024Z,100291.44
2023-09-08T10:35:34.889Z,100297.81
2023-09-08T10:40:37.231Z,100288.34
2023-09-08T10:45:42.644Z,100270.16
2023-09-08T10:50:44.580Z,100274.28
2023-09-08T10:56:14.832Z,100264.69
2023-09-08T11:01:28.726Z,100269.69
2023-09-08T11:06:31.784Z,100263.44
2023-09-08T11:11:34.957Z,100267.09
2023-09-08T11:16:36.681Z,100262.59
2023-09-08T11:21:40.979Z,100259.78
2023-09-08T11:26:47.745Z,100254.25
2023-09-08T11:31:53.525Z,100246.75
2023-09-08T11:36:55.459Z,100249.50
2023-09-08T11:41:57.743Z,100245.69
2023-09-08T11:47:00.901Z,100242.09
2023-09-08T11:52:03.660Z,100239.34
2023-09-08T11:57:09.522Z,100230.47
2023-09-08T12:02:11.201Z,100231.38
2023-09-08T12:07:20.500Z,100231.44
2023-09-08T12:12:22.323Z,100219.34
2023-09-08T12:17:26.864Z,100210.56
2023-09-08T12:22:29.160Z,100214.28
2023-09-08T12:27:30.882Z,100203.75
2023-09-08T12:32:33.740Z,100194.63
2023-09-08T12:37:36.356Z,100201.78
2023-09-08T12:42:42.347Z,100199.03
2023-09-08T12:47:51.270Z,100199.53
2023-09-08T12:52:53.102Z,100190.09
2023-09-08T12:57:58.497Z,100174.66
2023-09-08T13:03:00.393Z,100174.81
2023-09-08T13:08:02.820Z,100176.59
2023-09-08T13:13:05.570Z,100177.59
2023-09-08T13:18:08.251Z,100162.94
2023-09-08T13:23:11.597Z,100159.72
2023-09-08T13:28:13.955Z,100163.09
2023-09-08T13:33:17.713Z,100158.22
2023-09-08T13:38:20.613Z,100155.97
2023-09-08T13:43:24.409Z,100157.25
2023-09-08T13:48:28.218Z,100134.63
2023-09-08T13:53:43.449Z,100142.78
2023-09-08T13:58:51.440Z,100127.78
2023-09-08T14:04:03.447Z,100127.81
2023-09-08T14:14:13.795Z,100122.75
2023-09-08T14:19:17.292Z,100116.13
2023-09-08T14:24:21.205Z,100132.69
2023-09-08T14:29:26.042Z,100119.69
2023-09-08T14:34:29.535Z,100112.34
2023-09-08T14:39:32.610Z,100102.28
2023-09-08T14:44:35.777Z,100111.03
2023-09-08T14:49:39.113Z,100112.22
2023-09-08T14:54:46.806Z,100112.84
2023-09-08T14:59:50.697Z,100117.91
2023-09-08T15:04:54.371Z,100116.16
2023-09-08T15:09:57.363Z,100102.81
2023-09-08T15:15:01.020Z,100098.91
2023-09-08T15:20:04.741Z,100107.34
2023-09-08T15:25:08.015Z,100089.97
2023-09-08T15:30:12.940Z,100092.91
2023-09-08T15:35:16.559Z,100100.25
2023-09-08T15:40:19.295Z,100096.97
2023-09-08T15:45:22.284Z,100095.97
2023-09-08T15:50:25.438Z,100098.41
2023-09-08T15:55:28.682Z,100097.41
2023-09-08T16:00:35.636Z,100090.09
2023-09-08T16:05:38.426Z,100083.09
2023-09-08T16:10:41.921Z,100081.44
2023-09-08T16:15:45.904Z,100072.63
2023-09-08T16:20:48.985Z,100079.06
2023-09-08T16:25:52.869Z,100070.91
2023-09-08T16:30:55.655Z,100078.78
2023-09-08T16:35:59.495Z,100082.31
2023-09-08T16:41:03.221Z,100078.03
2023-09-08T16:46:06.618Z,100081.44
2023-09-08T16:51:10.683Z,100082.28
2023-09-08T16:56:14.260Z,100082.63
2023-09-08T17:01:17.569Z,100078.09
2023-09-08T17:06:21.678Z,100080.69
2023-09-08T17:11:24.604Z,100085.91
2023-09-08T17:16:28.453Z,100077.44
2023-09-08T17:21:32.289Z,100083.84
2023-09-08T17:26:36.034Z,100079.03
2023-09-08T17:31:40.196Z,100085.91
2023-09-08T17:36:44.190Z,100093.59
2023-09-08T17:41:49.841Z,100090.16
2023-09-08T17:46:53.431Z,100098.78
2023-09-08T17:51:57.501Z,100100.13
2023-09-08T17:57:01.717Z,100109.97
2023-09-08T18:02:05.913Z,100119.47
2023-09-08T18:07:11.796Z,100120.47
2023-09-08T18:12:15.124Z,100117.19
2023-09-08T18:17:19.676Z,100122.19
2023-09-08T18:22:23.955Z,100128.72
2023-09-08T18:27:31.702Z,100120.56
2023-09-08T18:32:35.927Z,100119.91
2023-09-08T18:37:46.213Z,100122.53
2023-09-08T18:42:51.769Z,100125.69
2023-09-08T18:47:55.562Z,100126.31
2023-09-08T18:52:59.810Z,100123.38
2023-09-08T18:58:05.429Z,100121.81
2023-09-08T19:03:09.926Z,100131.44
2023-09-08T19:08:15.616Z,100136.69
2023-09-08T19:13:20.551Z,100139.19
2023-09-08T19:18:24.909Z,100143.84
2023-09-08T19:23:30.307Z,100135.09
2023-09-08T19:28:38.515Z,100131.81
2023-09-08T19:33:46.190Z,100132.91
2023-09-08T19:38:51.359Z,100126.09
2023-09-08T19:44:02.210Z,100137.84
2023-09-08T19:49:06.726Z,100141.97
2023-09-08T19:54:17.473Z,100147.41
2023-09-08T19:59:22.386Z,100141.69
2023-09-08T20:04:31.350Z,100129.13
2023-09-08T20:09:35.943Z,100133.47
2023-09-08T20:14:39.260Z,100133.47
2023-09-08T20:19:44.428Z,100138.31
2023-09-08T20:24:51.941Z,100148.66
2023-09-08T20:30:00.295Z,100145.91
2023-09-08T20:35:06.674Z,100149.16
2023-09-08T20:40:11.528Z,100145.56
2023-09-08T20:45:15.119Z,100151.50
2023-09-08T20:50:20.117Z,100146.59
2023-09-08T20:55:24.227Z,100153.88
2023-09-08T21:00:28.003Z,100156.31
2023-09-08T21:05:30.732Z,100157.88
2023-09-08T21:10:33.628Z,100154.75
2023-09-08T21:15:35.261Z,100158.56
2023-09-08T21:20:37.340Z,100156.09
2023-09-08T21:25:38.973Z,100153.25
2023-09-08T21:30:40.774Z,100151.56
2023-09-08T21:35:42.441Z,100161.25
2023-09-08T21:40:44.021Z,100147.31
2023-09-08T21:45:50.027Z,100157.53
2023-09-08T21:50:51.582Z,100154.47
2023-09-08T21:55:53.246Z,100150.28
2023-09-08T22:00:54.781Z,100147.63
2023-09-08T22:05:56.497Z,100146.44
2023-09-08T22:11:06.110Z,100142.84
2023-09-08T22:16:08.037Z,100149.53
2023-09-08T22:21:09.639Z,100137.22
2023-09-08T22:26:19.274Z,100135.56
2023-09-08T22:31:20.807Z,100125.94
2023-09-08T22:36:22.380Z,100120.19
2023-09-08T22:41:24.003Z,100119.88
2023-09-08T22:46:25.609Z,100115.38
2023-09-08T22:51:27.139Z,100116.06
2023-09-08T22:56:29.037Z,100112.16
2023-09-08T23:01:30.644Z,100116.19
2023-09-08T23:06:32.206Z,100118.50
2023-09-08T23:11:35.105Z,100115.97
2023-09-08T23:16:36.719Z,100126.59
2023-09-08T23:21:38.496Z,100123.22
2023-09-08T23:26:40.610Z,100128.91
2023-09-08T23:31:42.149Z,100122.91
2023-09-08T23:36:43.947Z,100131.47
2023-09-08T23:41:46.424Z,100122.66
2023-09-08T23:46:48.002Z,100122.00
2023-09-08T23:51:49.758Z,100113.56
2023-09-08T23:56:51.371Z,100110.72
